createdAt,value
2024-04-05T00:00:17.841Z,123.59
2024-04-05T00:01:18.007Z,124.36
2024-04-05T00:02:18.183Z,129.77
2024-04-05T00:03:18.351Z,130.04
2024-04-05T00:04:18.487Z,134.47
2024-04-05T00:05:18.656Z,133.33
2024-04-05T00:06:18.824Z,136.00
2024-04-05T00:07:18.997Z,154.89
2024-04-05T00:08:19.182Z,172.43
2024-04-05T00:09:19.329Z,186.24
2024-04-05T00:10:19.508Z,186.38
2024-04-05T00:11:19.657Z,185.77
2024-04-05T00:12:19.809Z,178.73
2024-04-05T00:13:19.981Z,163.04
2024-04-05T00:14:20.109Z,158.77
2024-04-05T00:15:20.299Z,157.54
2024-04-05T00:16:20.441Z,174.44
2024-04-05T00:17:20.604Z,190.42
2024-04-05T00:18:20.729Z,193.75
2024-04-05T00:19:20.876Z,194.44
2024-04-05T00:20:21.048Z,208.65
2024-04-05T00:21:21.178Z,212.56
2024-04-05T00:22:21.358Z,194.58
2024-04-05T00:23:21.512Z,187.15
2024-04-05T00:24:21.638Z,191.05
2024-04-05T00:25:21.788Z,180.83
2024-04-05T00:26:21.922Z,196.84
2024-04-05T00:27:22.052Z,187.87
2024-04-05T00:28:22.205Z,173.09
2024-04-05T00:29:22.339Z,178.27
2024-04-05T00:30:22.471Z,189.22
2024-04-05T00:31:22.689Z,191.00
2024-04-05T00:32:22.836Z,194.25
2024-04-05T00:33:22.980Z,185.71
2024-04-05T00:34:23.176Z,179.02
2024-04-05T00:35:23.316Z,191.45
2024-04-05T00:36:23.460Z,212.21
2024-04-05T00:37:23.682Z,223.48
2024-04-05T00:38:23.807Z,232.06
2024-04-05T00:39:23.954Z,222.22
2024-04-05T00:40:24.106Z,222.85
2024-04-05T00:41:24.254Z,228.66
2024-04-05T00:42:24.467Z,225.85
2024-04-05T00:43:24.588Z,234.22
2024-04-05T00:44:24.787Z,235.81
2024-04-05T00:45:24.936Z,230.45
2024-04-05T00:46:25.067Z,223.65
2024-04-05T00:47:25.290Z,219.11
2024-04-05T00:48:25.423Z,216.18
2024-04-05T00:49:25.592Z,213.27
2024-04-05T00:50:25.801Z,193.97
2024-04-05T00:51:25.951Z,192.53
2024-04-05T00:52:26.144Z,201.39
2024-04-05T00:53:26.279Z,217.63
2024-04-05T00:54:26.421Z,230.91
2024-04-05T00:55:26.643Z,224.96
2024-04-05T00:56:26.760Z,220.59
2024-04-05T00:57:26.970Z,217.23
2024-04-05T00:58:27.109Z,205.18
2024-04-05T00:59:27.273Z,191.43
2024-04-05T01:00:27.426Z,191.44
2024-04-05T01:01:27.752Z,204.17
2024-04-05T01:02:27.821Z,216.04
2024-04-05T01:03:27.911Z,239.63
2024-04-05T01:04:28.108Z,254.55
2024-04-05T01:05:28.295Z,263.22
2024-04-05T01:06:28.473Z,283.56
2024-04-05T01:07:28.629Z,294.31
2024-04-05T01:08:28.910Z,295.38
2024-04-05T01:09:29.038Z,282.59
2024-04-05T01:10:29.176Z,267.29
2024-04-05T01:11:29.322Z,256.25
2024-04-05T01:12:29.483Z,260.26
2024-04-05T01:13:29.634Z,255.29
2024-04-05T01:14:29.790Z,233.16
2024-04-05T01:15:29.931Z,213.53
2024-04-05T01:16:30.078Z,198.82
2024-04-05T01:17:30.271Z,208.68
2024-04-05T01:18:30.440Z,219.50
2024-04-05T01:19:30.579Z,217.72
2024-04-05T01:20:30.753Z,214.82
2024-04-05T01:21:30.927Z,219.85
2024-04-05T01:22:31.082Z,222.32
2024-04-05T01:23:31.279Z,234.22
2024-04-05T01:24:31.438Z,242.80
2024-04-05T01:25:31.626Z,252.94
2024-04-05T01:26:31.839Z,268.25
2024-04-05T01:27:31.978Z,265.91
2024-04-05T01:28:32.178Z,248.75
2024-04-05T01:29:32.294Z,250.18
2024-04-05T01:30:32.518Z,250.00
2024-04-05T01:31:32.714Z,253.69
2024-04-05T01:32:32.961Z,258.26
2024-04-05T01:33:33.092Z,251.38
2024-04-05T01:34:33.255Z,247.09
2024-04-05T01:35:33.411Z,243.78
2024-04-05T01:36:33.628Z,237.28
2024-04-05T01:37:33.868Z,238.39
2024-04-05T01:38:34.035Z,250.02
2024-04-05T01:39:34.180Z,274.84
2024-04-05T01:40:34.362Z,266.88
2024-04-05T01:41:34.577Z,249.36
2024-04-05T01:42:34.740Z,240.23
2024-04-05T01:43:35.028Z,245.89
2024-04-05T01:44:35.133Z,251.92
2024-04-05T01:45:36.202Z,232.87
2024-04-05T01:46:35.208Z,212.74
2024-04-05T01:47:35.202Z,209.79
2024-04-05T01:48:35.052Z,219.68
2024-04-05T01:49:35.019Z,243.60
2024-04-05T01:50:34.915Z,242.58
2024-04-05T01:51:34.831Z,239.07
2024-04-05T01:52:34.789Z,222.44
2024-04-05T01:53:34.711Z,207.65
2024-04-05T01:54:34.624Z,207.20
2024-04-05T01:55:34.606Z,212.97
2024-04-05T01:56:34.527Z,221.16
2024-04-05T01:57:34.398Z,213.06
2024-04-05T01:58:34.314Z,210.65
2024-04-05T01:59:34.245Z,209.96
2024-04-05T02:00:34.183Z,207.10
2024-04-05T02:01:34.085Z,222.15
2024-04-05T02:02:34.024Z,204.15
2024-04-05T02:03:33.940Z,198.98
2024-04-05T02:04:33.859Z,197.87
2024-04-05T02:05:33.791Z,215.08
2024-04-05T02:06:33.706Z,220.55
2024-04-05T02:07:33.648Z,224.23
2024-04-05T02:08:33.631Z,231.96
2024-04-05T02:09:33.783Z,249.11
2024-04-05T02:10:34.050Z,258.32
2024-04-05T02:11:34.262Z,267.86
2024-04-05T02:12:34.457Z,260.55
2024-04-05T02:13:34.655Z,250.32
2024-04-05T02:14:34.852Z,245.24
2024-04-05T02:15:35.066Z,260.04
2024-04-05T02:16:35.253Z,257.54
2024-04-05T02:17:35.409Z,245.59
2024-04-05T02:18:35.593Z,236.56
2024-04-05T02:19:35.815Z,244.40
2024-04-05T02:20:35.988Z,247.88
2024-04-05T02:21:36.184Z,249.69
2024-04-05T02:22:36.358Z,228.29
2024-04-05T02:23:36.536Z,219.97
2024-04-05T02:24:36.727Z,219.72
2024-04-05T02:25:36.914Z,246.14
2024-04-05T02:26:37.070Z,262.95
2024-04-05T02:27:37.256Z,261.08
2024-04-05T02:28:37.449Z,254.43
2024-04-05T02:29:37.599Z,250.86
2024-04-05T02:30:37.781Z,232.88
2024-04-05T02:31:38.003Z,233.17
2024-04-05T02:32:38.149Z,249.47
2024-04-05T02:33:38.317Z,249.05
2024-04-05T02:34:38.512Z,247.94
2024-04-05T02:35:38.684Z,251.71
2024-04-05T02:36:38.870Z,257.40
2024-04-05T02:37:39.114Z,263.51
2024-04-05T02:38:39.239Z,266.47
2024-04-05T02:39:39.429Z,270.90
2024-04-05T02:40:39.617Z,264.22
2024-04-05T02:41:39.794Z,254.86
2024-04-05T02:42:39.980Z,252.70
2024-04-05T02:43:40.203Z,252.48
2024-04-05T02:44:40.331Z,254.08
2024-04-05T02:45:40.440Z,251.39
2024-04-05T02:46:40.670Z,246.94
2024-04-05T02:47:40.814Z,232.17
2024-04-05T02:48:40.987Z,251.42
2024-04-05T02:49:41.168Z,246.61
2024-04-05T02:50:41.369Z,244.82
2024-04-05T02:51:41.555Z,245.80
2024-04-05T02:52:41.798Z,242.53
2024-04-05T02:53:41.950Z,234.77
2024-04-05T02:54:42.150Z,222.00
2024-04-05T02:55:42.334Z,220.56
2024-04-05T02:56:42.483Z,226.36
2024-04-05T02:57:42.689Z,222.05
2024-04-05T02:58:42.999Z,218.12
2024-04-05T02:59:43.041Z,230.22
2024-04-05T03:00:43.227Z,210.24
2024-04-05T03:01:43.446Z,212.73
2024-04-05T03:02:43.608Z,209.42
2024-04-05T03:03:43.781Z,207.52
2024-04-05T03:04:43.995Z,213.48
2024-04-05T03:05:44.148Z,234.62
2024-04-05T03:06:44.339Z,229.92
2024-04-05T03:07:44.595Z,219.41
2024-04-05T03:08:44.708Z,211.59
2024-04-05T03:09:44.962Z,210.39
2024-04-05T03:10:45.114Z,220.23
2024-04-05T03:11:45.268Z,217.14
2024-04-05T03:12:45.460Z,203.17
2024-04-05T03:13:45.665Z,202.39
2024-04-05T03:14:45.833Z,201.64
2024-04-05T03:15:46.026Z,218.44
2024-04-05T03:16:46.263Z,202.70
2024-04-05T03:17:46.387Z,188.52
2024-04-05T03:18:46.574Z,194.60
2024-04-05T03:19:46.838Z,194.10
2024-04-05T03:20:47.010Z,199.80
2024-04-05T03:21:47.171Z,189.89
2024-04-05T03:22:47.368Z,182.56
2024-04-05T03:23:47.540Z,179.08
2024-04-05T03:24:47.729Z,179.87
2024-04-05T03:25:47.952Z,181.95
2024-04-05T03:26:48.111Z,180.94
2024-04-05T03:27:48.303Z,178.04
2024-04-05T03:28:48.532Z,177.46
2024-04-05T03:29:48.713Z,172.09
2024-04-05T03:30:48.887Z,174.92
2024-04-05T03:31:49.044Z,182.46
2024-04-05T03:32:49.229Z,188.17
2024-04-05T03:33:49.412Z,191.50
2024-04-05T03:34:49.608Z,190.19
2024-04-05T03:35:49.789Z,187.90
2024-04-05T03:36:49.991Z,186.95
2024-04-05T03:37:50.183Z,171.91
2024-04-05T03:38:51.260Z,178.95
2024-04-05T03:39:50.342Z,172.42
2024-04-05T03:40:50.302Z,164.09
2024-04-05T03:41:50.267Z,167.22
2024-04-05T03:42:50.242Z,165.93
2024-04-05T03:43:50.205Z,183.97
2024-04-05T03:44:50.167Z,189.11
2024-04-05T03:45:50.135Z,170.43
2024-04-05T03:46:50.106Z,174.72
2024-04-05T03:47:50.074Z,170.52
2024-04-05T03:48:50.028Z,184.55
2024-04-05T03:49:50.002Z,173.39
2024-04-05T03:50:49.969Z,157.53
2024-04-05T03:51:49.938Z,149.98
2024-04-05T03:52:49.924Z,147.73
2024-04-05T03:53:49.899Z,151.23
2024-04-05T03:54:49.978Z,156.63
2024-04-05T03:55:50.157Z,161.11
2024-04-05T03:56:51.368Z,159.42
2024-04-05T03:57:50.334Z,153.01
2024-04-05T03:58:50.295Z,152.29
2024-04-05T03:59:50.279Z,156.09
2024-04-05T04:00:50.261Z,153.86
2024-04-05T04:01:50.224Z,149.29
2024-04-05T04:02:50.197Z,153.05
2024-04-05T04:03:50.179Z,152.25
2024-04-05T04:04:50.191Z,149.73
2024-04-05T04:05:50.136Z,152.84
2024-04-05T04:06:50.120Z,150.24
2024-04-05T04:07:50.160Z,157.47
2024-04-05T04:08:50.317Z,161.82
2024-04-05T04:09:50.472Z,157.04
2024-04-05T04:10:50.636Z,156.38
2024-04-05T04:11:50.770Z,153.46
2024-04-05T04:12:50.933Z,151.24
2024-04-05T04:13:51.080Z,143.70
2024-04-05T04:14:51.301Z,136.25
2024-04-05T04:15:51.516Z,134.37
2024-04-05T04:16:51.756Z,133.65
2024-04-05T04:17:51.844Z,139.31
2024-04-05T04:18:52.047Z,142.50
2024-04-05T04:19:52.286Z,141.25
2024-04-05T04:20:52.504Z,139.82
2024-04-05T04:21:52.657Z,137.66
2024-04-05T04:22:52.871Z,138.56
2024-04-05T04:23:53.028Z,139.79
2024-04-05T04:24:53.192Z,139.61
2024-04-05T04:25:53.307Z,139.01
2024-04-05T04:26:53.446Z,141.49
2024-04-05T04:27:53.691Z,143.87
2024-04-05T04:28:53.859Z,146.66
2024-04-05T04:29:54.010Z,150.48
2024-04-05T04:30:54.117Z,155.84
2024-04-05T04:31:54.353Z,156.61
2024-04-05T04:33:02.289Z,0.50
2024-04-05T04:34:02.372Z,0.50
2024-04-05T04:35:02.479Z,0.50
2024-04-05T04:36:02.584Z,0.50
2024-04-05T04:37:02.716Z,0.50
2024-04-05T04:38:02.938Z,0.50
2024-04-05T04:39:03.025Z,0.50
2024-04-05T04:40:03.155Z,0.50
2024-04-05T04:41:03.290Z,0.53
2024-04-05T04:42:03.511Z,0.56
2024-04-05T04:43:05.717Z,0.55
2024-04-05T04:44:03.613Z,0.53
2024-04-05T04:45:03.617Z,0.52
2024-04-05T04:46:03.624Z,0.55
2024-04-05T04:47:03.626Z,0.56
2024-04-05T04:48:03.632Z,0.55
2024-04-05T04:49:03.645Z,0.56
2024-04-05T04:50:03.655Z,0.57
2024-04-05T04:51:03.657Z,0.54
2024-04-05T04:52:03.667Z,0.51
2024-04-05T04:53:03.684Z,0.50
2024-04-05T04:54:03.680Z,0.50
2024-04-05T04:55:03.690Z,0.50
2024-04-05T04:56:03.718Z,0.50
2024-04-05T04:57:03.699Z,0.50
2024-04-05T04:58:03.711Z,0.50
2024-04-05T04:59:03.785Z,0.51
2024-04-05T05:00:03.808Z,0.51
2024-04-05T05:01:03.804Z,0.52
2024-04-05T05:02:03.812Z,0.53
2024-04-05T05:03:03.823Z,0.52
2024-04-05T05:04:03.833Z,0.50
2024-04-05T05:05:03.844Z,0.50
2024-04-05T05:06:03.879Z,0.50
2024-04-05T05:07:03.884Z,0.52
2024-04-05T05:08:03.921Z,0.53
2024-04-05T05:09:03.892Z,0.57
2024-04-05T05:10:03.888Z,0.61
2024-04-05T05:11:03.891Z,0.64
2024-04-05T05:12:03.913Z,0.67
2024-04-05T05:13:06.483Z,0.67
2024-04-05T05:14:03.905Z,0.67
2024-04-05T05:15:03.913Z,0.67
2024-04-05T05:16:03.914Z,0.68
2024-04-05T05:17:03.919Z,0.71
2024-04-05T05:18:03.943Z,0.66
2024-04-05T05:19:03.919Z,0.69
2024-04-05T05:20:03.959Z,0.72
2024-04-05T05:21:03.931Z,0.75
2024-04-05T05:22:03.936Z,0.77
2024-04-05T05:23:03.944Z,0.77
2024-04-05T05:24:03.946Z,0.80
2024-04-05T05:25:03.954Z,0.85
2024-04-05T05:26:03.930Z,0.88
2024-04-05T05:27:03.930Z,0.90
2024-04-05T05:28:03.945Z,0.88
2024-04-05T05:29:04.639Z,0.86
2024-04-05T05:30:03.983Z,0.90
2024-04-05T05:31:03.956Z,0.94
2024-04-05T05:32:03.976Z,0.97
2024-04-05T05:33:03.971Z,0.99
2024-04-05T05:34:03.970Z,0.98
2024-04-05T05:35:03.972Z,0.93
2024-04-05T05:36:03.972Z,0.91
2024-04-05T05:37:03.974Z,0.89
2024-04-05T05:38:03.974Z,0.90
2024-04-05T05:39:03.987Z,0.90
2024-04-05T05:40:03.973Z,0.83
2024-04-05T05:41:04.724Z,0.79
2024-04-05T05:42:03.973Z,0.76
2024-04-05T05:43:03.986Z,0.74
2024-04-05T05:44:03.980Z,0.73
2024-04-05T05:45:03.990Z,0.73
2024-04-05T05:46:03.982Z,0.75
2024-04-05T05:47:03.986Z,0.74
2024-04-05T05:48:03.985Z,0.72
2024-04-05T05:49:04.003Z,0.74
2024-04-05T05:50:03.977Z,0.77
2024-04-05T05:51:03.982Z,0.78
2024-04-05T05:52:03.976Z,0.77
2024-04-05T05:53:04.076Z,0.79
2024-04-05T05:54:04.725Z,0.79
2024-04-05T05:55:03.971Z,0.80
2024-04-05T05:56:03.974Z,0.84
2024-04-05T05:57:03.963Z,0.89
2024-04-05T05:58:04.159Z,0.91
2024-04-05T05:59:04.333Z,0.95
2024-04-05T06:00:04.536Z,0.96
2024-04-05T06:01:04.747Z,0.96
2024-04-05T06:02:08.188Z,1.01
2024-04-05T06:03:04.919Z,1.01
2024-04-05T06:04:04.912Z,1.03
2024-04-05T06:05:04.908Z,1.14
2024-04-05T06:06:04.909Z,1.40
2024-04-05T06:07:05.656Z,1.89
2024-04-05T06:08:04.906Z,2.13
2024-04-05T06:09:04.897Z,2.24
2024-04-05T06:10:04.895Z,2.30
2024-04-05T06:11:04.889Z,2.35
2024-04-05T06:12:04.892Z,2.43
2024-04-05T06:13:04.893Z,2.53
2024-04-05T06:14:04.892Z,2.62
2024-04-05T06:15:04.893Z,2.79
2024-04-05T06:16:04.915Z,2.86
2024-04-05T06:17:04.887Z,2.61
2024-04-05T06:18:04.894Z,2.58
2024-04-05T06:19:05.737Z,2.35
2024-04-05T06:20:04.905Z,2.17
2024-04-05T06:21:04.908Z,2.15
2024-04-05T06:22:04.911Z,1.93
2024-04-05T06:23:04.934Z,1.82
2024-04-05T06:24:04.936Z,1.69
2024-04-05T06:25:05.002Z,1.59
2024-04-05T06:26:05.068Z,1.59
2024-04-05T06:27:06.215Z,1.60
2024-04-05T06:28:05.095Z,1.60
2024-04-05T06:29:05.187Z,1.60
2024-04-05T06:30:05.072Z,1.55
2024-04-05T06:31:05.182Z,1.58
2024-04-05T06:32:05.072Z,1.75
2024-04-05T06:33:05.071Z,1.88
2024-04-05T06:34:05.065Z,1.97
2024-04-05T06:35:06.555Z,2.03
2024-04-05T06:36:05.094Z,2.04
2024-04-05T06:37:05.099Z,1.99
2024-04-05T06:38:05.325Z,1.80
2024-04-05T06:39:05.104Z,1.84
2024-04-05T06:40:05.096Z,2.01
2024-04-05T06:41:05.741Z,2.05
2024-04-05T06:42:05.101Z,2.04
2024-04-05T06:43:05.113Z,1.94
2024-04-05T06:44:05.130Z,1.92
2024-04-05T06:45:05.759Z,2.03
2024-04-05T06:46:05.691Z,2.04
2024-04-05T06:47:05.110Z,1.97
2024-04-05T06:48:05.350Z,1.91
2024-04-05T06:49:05.110Z,1.94
2024-04-05T06:50:05.115Z,2.08
2024-04-05T06:51:05.675Z,2.14
2024-04-05T06:52:05.215Z,2.15
2024-04-05T06:53:05.125Z,2.17
2024-04-05T06:54:05.133Z,2.26
2024-04-05T06:55:05.671Z,2.26
2024-04-05T06:56:05.135Z,2.28
2024-04-05T06:57:05.115Z,2.34
2024-04-05T06:58:05.089Z,2.30
2024-04-05T06:59:05.105Z,2.17
2024-04-05T07:00:05.060Z,2.09
2024-04-05T07:01:05.038Z,1.89
2024-04-05T07:02:05.023Z,1.70
2024-04-05T07:03:05.095Z,1.55
2024-04-05T07:04:04.990Z,1.44
2024-04-05T07:05:04.977Z,1.34
2024-04-05T07:06:05.084Z,1.19
2024-04-05T07:07:04.958Z,1.08
2024-04-05T07:08:04.967Z,1.08
2024-04-05T07:09:05.076Z,1.13
2024-04-05T07:10:04.971Z,1.14
2024-04-05T07:11:05.106Z,1.14
2024-04-05T07:12:04.981Z,1.13
2024-04-05T07:13:04.965Z,0.95
2024-04-05T07:14:05.080Z,0.74
2024-04-05T07:15:04.937Z,0.64
2024-04-05T07:16:04.888Z,0.50
2024-04-05T07:17:05.733Z,0.59
2024-04-05T07:18:04.889Z,0.65
2024-04-05T07:19:07.430Z,0.78
2024-04-05T07:20:04.848Z,0.78
2024-04-05T07:21:04.854Z,0.79
2024-04-05T07:22:04.859Z,0.82
2024-04-05T07:23:04.858Z,0.87
2024-04-05T07:24:04.768Z,0.93
2024-04-05T07:25:04.747Z,0.93
2024-04-05T07:26:04.695Z,0.97
2024-04-05T07:27:04.676Z,1.03
2024-04-05T07:28:04.667Z,1.02
2024-04-05T07:29:04.617Z,0.98
2024-04-05T07:30:04.588Z,0.99
2024-04-05T07:31:04.542Z,0.89
2024-04-05T07:32:04.549Z,0.82
2024-04-05T07:33:04.562Z,0.84
2024-04-05T07:34:04.472Z,0.83
2024-04-05T07:35:04.438Z,0.81
2024-04-05T07:36:04.394Z,0.85
2024-04-05T07:37:04.366Z,0.91
2024-04-05T07:38:04.333Z,0.96
2024-04-05T07:39:04.317Z,0.98
2024-04-05T07:40:04.264Z,0.92
2024-04-05T07:41:04.250Z,0.96
2024-04-05T07:42:04.206Z,0.90
2024-04-05T07:43:04.157Z,0.99
2024-04-05T07:44:04.107Z,1.29
2024-04-05T07:45:04.082Z,1.39
2024-04-05T07:46:04.034Z,1.00
2024-04-05T07:47:04.041Z,0.73
2024-04-05T07:48:03.991Z,0.58
2024-04-05T07:49:03.974Z,0.56
2024-04-05T07:50:03.946Z,0.59
2024-04-05T07:51:03.892Z,0.61
2024-04-05T07:52:03.914Z,0.62
2024-04-05T07:53:03.940Z,0.61
2024-04-05T07:54:03.952Z,0.59
2024-04-05T07:55:04.876Z,0.59
2024-04-05T07:56:03.983Z,0.60
2024-04-05T07:57:10.708Z,0.54
2024-04-05T07:58:04.942Z,0.54
2024-04-05T07:59:03.886Z,0.48
2024-04-05T08:00:03.835Z,0.47
2024-04-05T08:01:03.752Z,0.33
2024-04-05T08:02:03.740Z,0.32
2024-04-05T08:03:03.648Z,0.26
2024-04-05T08:04:03.584Z,0.22
2024-04-05T08:05:03.583Z,0.21
2024-04-05T08:06:03.490Z,0.20
2024-04-05T08:07:03.416Z,0.21
2024-04-05T08:08:03.343Z,0.24
2024-04-05T08:09:03.290Z,0.27
2024-04-05T08:10:03.273Z,0.30
2024-04-05T08:11:04.261Z,0.30
2024-04-05T08:12:04.606Z,0.33
2024-04-05T08:13:03.341Z,0.40
2024-04-05T08:14:03.333Z,0.55
2024-04-05T08:15:03.336Z,0.83
2024-04-05T08:16:03.342Z,0.83
2024-04-05T08:17:03.336Z,0.60
2024-04-05T08:18:03.327Z,0.52
2024-04-05T08:19:03.325Z,0.68
2024-04-05T08:20:03.299Z,0.86
2024-04-05T08:21:03.305Z,1.01
2024-04-05T08:22:03.281Z,0.96
2024-04-05T08:23:03.293Z,0.64
2024-04-05T08:24:03.345Z,0.48
2024-04-05T08:25:03.281Z,0.44
2024-04-05T08:26:03.237Z,0.48
2024-04-05T08:27:03.199Z,0.46
2024-04-05T08:28:03.207Z,0.48
2024-04-05T08:29:03.115Z,0.50
2024-04-05T08:30:03.067Z,0.62
2024-04-05T08:31:03.031Z,0.80
2024-04-05T08:32:02.989Z,0.95
2024-04-05T08:33:02.989Z,1.06
2024-04-05T08:34:02.966Z,1.07
2024-04-05T08:35:02.970Z,0.90
2024-04-05T08:36:02.942Z,0.63
2024-04-05T08:37:02.921Z,0.54
2024-04-05T08:38:02.909Z,0.50
2024-04-05T08:39:02.854Z,0.50
2024-04-05T08:40:02.792Z,0.50
2024-04-05T08:41:02.784Z,0.51
2024-04-05T08:42:02.695Z,0.50
2024-04-05T08:43:02.642Z,0.50
2024-04-05T08:44:02.544Z,0.50
2024-04-05T08:45:02.506Z,0.50
2024-04-05T08:46:02.431Z,0.53
2024-04-05T08:47:02.376Z,0.52
2024-04-05T08:48:02.338Z,0.51
2024-04-05T08:49:02.281Z,0.52
2024-04-05T08:50:02.226Z,0.52
2024-04-05T08:51:02.152Z,0.45
2024-04-05T08:52:02.095Z,0.42
2024-04-05T08:53:02.019Z,0.40
2024-04-05T08:54:01.931Z,0.41
2024-04-05T08:55:01.862Z,0.51
2024-04-05T08:56:01.782Z,0.52
2024-04-05T08:57:01.716Z,0.50
2024-04-05T08:58:01.620Z,0.51
2024-04-05T08:59:01.563Z,0.56
2024-04-05T09:00:01.485Z,0.58
2024-04-05T09:01:01.371Z,0.60
2024-04-05T09:02:01.304Z,0.60
2024-04-05T09:03:01.222Z,0.54
2024-04-05T09:04:01.157Z,0.54
2024-04-05T09:05:01.067Z,0.56
2024-04-05T09:06:01.008Z,0.59
2024-04-05T09:07:00.965Z,0.51
2024-04-05T09:08:00.904Z,0.55
2024-04-05T09:09:00.868Z,0.59
2024-04-05T09:10:00.837Z,0.66
2024-04-05T09:11:00.788Z,0.63
2024-04-05T09:12:00.792Z,0.58
2024-04-05T09:13:00.741Z,0.55
2024-04-05T09:14:00.717Z,0.56
2024-04-05T09:15:00.683Z,0.54
2024-04-05T09:16:00.581Z,0.52
2024-04-05T09:17:00.533Z,0.50
2024-04-05T09:18:00.508Z,0.50
2024-04-05T09:19:00.487Z,0.50
2024-04-05T09:20:00.455Z,0.51
2024-04-05T09:21:00.424Z,0.53
2024-04-05T09:22:00.365Z,0.50
2024-04-05T09:23:00.406Z,0.50
2024-04-05T09:24:00.326Z,0.52
2024-04-05T09:25:00.304Z,0.50
2024-04-05T09:26:00.281Z,0.50
2024-04-05T09:27:00.808Z,0.50
2024-04-05T09:28:00.290Z,0.52
2024-04-05T09:29:00.185Z,0.57
2024-04-05T09:30:00.197Z,0.58
2024-04-05T09:31:00.319Z,0.62
2024-04-05T09:32:00.417Z,0.65
2024-04-05T09:33:00.603Z,0.67
2024-04-05T09:34:00.759Z,0.71
2024-04-05T09:35:00.684Z,0.73
2024-04-05T09:36:00.750Z,0.66
2024-04-05T09:37:00.945Z,0.65
2024-04-05T09:38:01.100Z,0.68
2024-04-05T09:39:01.116Z,0.56
2024-04-05T09:40:01.228Z,0.50
2024-04-05T09:41:01.479Z,0.50
2024-04-05T09:42:01.583Z,0.52
2024-04-05T09:43:01.709Z,0.50
2024-04-05T09:45:01.775Z,0.56
2024-04-05T09:46:01.760Z,0.56
2024-04-05T09:47:01.770Z,0.62
2024-04-05T09:48:01.696Z,0.71
2024-04-05T09:49:02.308Z,0.79
2024-04-05T09:50:01.672Z,0.72
2024-04-05T09:51:01.635Z,0.69
2024-04-05T09:52:01.585Z,0.61
2024-04-05T09:53:01.613Z,0.61
2024-04-05T09:54:01.480Z,0.59
2024-04-05T09:55:01.472Z,0.63
2024-04-05T09:56:01.535Z,0.65
2024-04-05T09:57:01.626Z,0.67
2024-04-05T09:58:01.296Z,0.72
2024-04-05T09:59:01.295Z,0.65
2024-04-05T10:00:01.305Z,0.69
2024-04-05T10:01:01.119Z,0.61
2024-04-05T10:02:01.231Z,0.64
2024-04-05T10:03:01.271Z,0.64
2024-04-05T10:04:02.289Z,0.65
2024-04-05T10:05:02.276Z,0.65
2024-04-05T10:06:01.218Z,0.54
2024-04-05T10:07:01.110Z,0.51
2024-04-05T10:08:01.059Z,0.51
2024-04-05T10:09:01.004Z,0.54
2024-04-05T10:10:01.124Z,0.54
2024-04-05T10:11:01.275Z,0.60
2024-04-05T10:12:01.498Z,0.61
2024-04-05T10:13:01.452Z,0.61
2024-04-05T10:14:01.562Z,0.51
2024-04-05T10:15:01.660Z,0.51
2024-04-05T10:16:01.774Z,0.50
2024-04-05T10:17:01.892Z,0.63
2024-04-05T10:18:02.007Z,0.62
2024-04-05T10:19:02.134Z,0.59
2024-04-05T10:20:02.283Z,0.54
2024-04-05T10:21:02.401Z,0.50
2024-04-05T10:22:02.452Z,0.51
2024-04-05T10:23:02.613Z,0.51
2024-04-05T10:24:02.761Z,0.50
2024-04-05T10:25:02.875Z,0.86
2024-04-05T10:26:03.072Z,1.96
2024-04-05T10:27:03.254Z,2.32
2024-04-05T10:28:03.336Z,1.67
2024-04-05T10:29:03.462Z,1.14
2024-04-05T10:30:03.603Z,0.83
2024-04-05T10:31:03.753Z,0.73
2024-04-05T10:32:03.934Z,0.71
2024-04-05T10:33:03.991Z,0.59
2024-04-05T10:34:04.175Z,0.48
2024-04-05T10:35:04.250Z,0.50
2024-04-05T10:36:04.400Z,0.52
2024-04-05T10:37:04.597Z,0.51
2024-04-05T10:38:14.584Z,0.52
2024-04-05T10:39:05.549Z,0.51
2024-04-05T10:40:04.453Z,0.52
2024-04-05T10:41:04.325Z,0.50
2024-04-05T10:42:04.228Z,0.54
2024-04-05T10:43:04.092Z,0.67
2024-04-05T10:44:03.982Z,0.73
2024-04-05T10:45:03.864Z,0.80
2024-04-05T10:46:03.775Z,0.66
2024-04-05T10:47:05.156Z,0.62
2024-04-05T10:48:03.516Z,0.57
2024-04-05T10:49:03.404Z,0.51
2024-04-05T10:50:03.291Z,0.51
2024-04-05T10:51:03.193Z,0.52
2024-04-05T10:52:03.271Z,0.50
2024-04-05T10:53:03.404Z,0.50
2024-04-05T10:54:03.567Z,0.55
2024-04-05T10:55:03.598Z,0.65
2024-04-05T10:56:03.814Z,0.56
2024-04-05T10:57:03.863Z,0.51
2024-04-05T10:58:03.936Z,0.52
2024-04-05T10:59:05.891Z,0.46
2024-04-05T11:00:03.984Z,0.52
2024-04-05T11:01:03.832Z,0.66
2024-04-05T11:02:03.744Z,0.88
2024-04-05T11:03:03.560Z,0.66
2024-04-05T11:04:03.851Z,0.60
2024-04-05T11:05:03.320Z,0.49
2024-04-05T11:06:03.163Z,0.48
2024-04-05T11:07:03.027Z,0.45
2024-04-05T11:08:02.914Z,0.49
2024-04-05T11:09:02.946Z,0.48
2024-04-05T11:10:05.082Z,0.50
2024-04-05T11:11:03.616Z,0.50
2024-04-05T11:12:02.521Z,0.48
2024-04-05T11:13:02.338Z,0.49
2024-04-05T11:14:02.264Z,0.51
2024-04-05T11:15:02.092Z,0.60
2024-04-05T11:16:01.951Z,0.68
2024-04-05T11:17:01.847Z,1.11
2024-04-05T11:18:01.685Z,1.09
2024-04-05T11:19:01.570Z,0.74
2024-04-05T11:20:01.537Z,0.59
2024-04-05T11:21:01.397Z,0.58
2024-04-05T11:22:01.241Z,0.53
2024-04-05T11:23:01.220Z,0.52
2024-04-05T11:24:01.004Z,0.57
2024-04-05T11:25:00.869Z,0.47
2024-04-05T11:26:00.841Z,0.50
2024-04-05T11:27:00.653Z,0.55
2024-04-05T11:28:00.581Z,0.50
2024-04-05T11:29:00.557Z,0.50
2024-04-05T11:30:00.483Z,0.58
2024-04-05T11:31:00.345Z,0.79
2024-04-05T11:32:00.289Z,0.86
2024-04-05T11:33:00.160Z,0.78
2024-04-05T11:34:00.090Z,0.70
2024-04-05T11:35:00.050Z,0.56
2024-04-05T11:35:59.967Z,0.52
2024-04-05T11:36:59.911Z,0.58
2024-04-05T11:37:59.866Z,0.58
2024-04-05T11:38:59.727Z,0.60
2024-04-05T11:39:59.600Z,0.70
2024-04-05T11:40:59.531Z,0.59
2024-04-05T11:41:59.385Z,0.63
2024-04-05T11:42:59.265Z,0.67
2024-04-05T11:43:59.219Z,0.75
2024-04-05T11:44:59.046Z,0.91
2024-04-05T11:45:58.936Z,0.67
2024-04-05T11:46:58.837Z,0.52
2024-04-05T11:47:58.763Z,0.52
2024-04-05T11:49:00.379Z,0.50
2024-04-05T11:49:58.592Z,0.51
2024-04-05T11:50:58.492Z,0.54
2024-04-05T11:51:58.384Z,0.51
2024-04-05T11:52:58.270Z,0.51
2024-04-05T11:53:58.130Z,0.50
2024-04-05T11:54:58.125Z,0.53
2024-04-05T11:55:59.717Z,0.59
2024-04-05T11:56:58.079Z,0.56
2024-04-05T11:57:57.928Z,0.45
2024-04-05T11:58:57.776Z,0.47
2024-04-05T11:59:57.622Z,0.53
2024-04-05T12:00:57.480Z,0.53
2024-04-05T12:01:58.120Z,0.67
2024-04-05T12:02:57.779Z,0.67
2024-04-05T12:03:57.008Z,0.72
2024-04-05T12:04:56.910Z,0.56
2024-04-05T12:05:56.720Z,0.51
2024-04-05T12:06:56.578Z,0.50
2024-04-05T12:07:56.471Z,0.58
2024-04-05T12:08:56.281Z,0.54
2024-04-05T12:09:56.120Z,0.49
2024-04-05T12:10:55.976Z,0.46
2024-04-05T12:11:55.832Z,0.46
2024-04-05T12:12:55.645Z,0.52
2024-04-05T12:13:55.518Z,0.60
2024-04-05T12:14:55.308Z,0.64
2024-04-05T12:15:55.156Z,0.57
2024-04-05T12:16:54.997Z,0.54
2024-04-05T12:17:54.860Z,0.50
2024-04-05T12:18:54.796Z,0.49
2024-04-05T12:19:54.648Z,0.50
2024-04-05T12:20:54.468Z,0.50
2024-04-05T12:21:54.302Z,0.55
2024-04-05T12:22:54.156Z,0.60
2024-04-05T12:23:53.986Z,0.50
2024-04-05T12:24:53.826Z,0.52
2024-04-05T12:25:53.657Z,0.54
2024-04-05T12:27:02.005Z,0.56
2024-04-05T12:27:54.370Z,0.55
2024-04-05T12:28:53.216Z,0.52
2024-04-05T12:29:53.052Z,0.56
2024-04-05T12:30:52.929Z,0.54
2024-04-05T12:31:52.781Z,0.50
2024-04-05T12:32:52.647Z,0.59
2024-04-05T12:33:52.510Z,0.61
2024-04-05T12:34:52.506Z,0.69
2024-04-05T12:35:52.614Z,0.78
2024-04-05T12:36:52.758Z,0.69
2024-04-05T12:37:52.888Z,0.68
2024-04-05T12:38:53.008Z,0.60
2024-04-05T12:39:53.155Z,0.58
2024-04-05T12:40:53.244Z,0.64
2024-04-05T12:41:53.362Z,0.58
2024-04-05T12:42:53.482Z,0.56
2024-04-05T12:43:53.670Z,0.54
2024-04-05T12:44:53.791Z,0.65
2024-04-05T12:45:53.917Z,0.73
2024-04-05T12:46:54.049Z,0.65
2024-04-05T12:47:54.153Z,0.68
2024-04-05T12:48:54.342Z,0.70
2024-04-05T12:49:54.458Z,0.63
2024-04-05T12:50:54.559Z,0.67
2024-04-05T12:51:54.759Z,0.62
2024-04-05T12:52:54.868Z,0.47
2024-04-05T12:53:54.980Z,0.59
2024-04-05T12:54:55.077Z,0.73
2024-04-05T12:55:57.977Z,0.87
2024-04-05T12:56:55.024Z,0.74
2024-04-05T12:57:54.882Z,0.65
2024-04-05T12:58:54.727Z,0.66
2024-04-05T12:59:54.571Z,0.55
2024-04-05T13:00:54.419Z,0.58
2024-04-05T13:01:54.272Z,0.52